Time;durP1;ratioP1;P1;durP2;ratioP2;P2;SDS_P1;SDS_P2;PMS_P1;PMS_P2;Temp;Humidity;BMP_temperature;BMP_pressure;BME280_temperature;BME280_humidity;BME280_pressure;Samples;Min_cycle;Max_cycle;Signal;HPM_P1;HPM_P2
2022/04/01 00:00:55;;;;;;;;;;;2.50;99.90;;;;;;5113031;27;20278;-78
2022/04/01 00:03:21;;;;;;;;;;;2.50;99.90;;;;;;5131500;27;19919;-78
2022/04/01 00:05:47;;;;;;;;;;;2.50;99.90;;;;;;5113158;27;19979;-79
2022/04/01 00:08:12;;;;;;;;;;;2.50;99.90;;;;;;5130754;27;19927;-79
2022/04/01 00:10:38;;;;;;;;;;;2.50;99.90;;;;;;5101554;27;19919;-79
2022/04/01 00:13:03;;;;;;;;;;;2.50;99.90;;;;;;5130787;27;19926;-79
2022/04/01 00:15:29;;;;;;;;;;;2.50;99.90;;;;;;5101039;28;19927;-79
2022/04/01 00:17:56;;;;;;;;;;;2.50;99.90;;;;;;5091832;28;20012;-79
2022/04/01 00:20:21;;;;;;;;;;;2.50;99.90;;;;;;5126796;27;19923;-79
2022/04/01 00:22:47;;;;;;;;;;;2.50;99.90;;;;;;5130971;27;19972;-79
2022/04/01 00:25:14;;;;;;;;;;;2.50;99.90;;;;;;5131333;27;19919;-79
2022/04/01 00:27:39;;;;;;;;;;;2.50;99.90;;;;;;5130881;27;20305;-78
2022/04/01 00:30:06;;;;;;;;;;;2.50;99.90;;;;;;5111558;27;19919;-79
2022/04/01 00:32:31;;;;;;;;;;;2.50;99.90;;;;;;5130422;27;19923;-79
2022/04/01 00:34:57;;;;;;;;;;;2.50;99.90;;;;;;5112267;27;20400;-79
2022/04/01 00:37:22;;;;;;;;;;;2.50;99.90;;;;;;5130307;27;19930;-79
2022/04/01 00:39:48;;;;;;;;;;;2.50;99.90;;;;;;5130748;27;19919;-79
2022/04/01 00:42:13;;;;;;;;;;;2.50;99.90;;;;;;5111993;27;20389;-79
2022/04/01 00:44:40;;;;;;;;;;;2.50;99.90;;;;;;5112153;27;19969;-79
2022/04/01 00:47:08;;;;;;;;;;;2.50;99.90;;;;;;5095497;27;20326;-79
2022/04/01 00:49:33;;;;;;;;;;;2.50;99.90;;;;;;5112155;28;20010;-79
2022/04/01 00:52:01;;;;;;;;;;;2.50;99.90;;;;;;5111859;28;20006;-79
2022/04/01 00:54:27;;;;;;;;;;;2.50;99.90;;;;;;5112333;28;19923;-79
2022/04/01 00:56:54;;;;;;;;;;;2.50;99.90;;;;;;5112106;28;20403;-79
2022/04/01 00:59:20;;;;;;;;;;;2.50;99.90;;;;;;5112195;28;20323;-79
2022/04/01 01:01:47;;;;;;;;;;;2.50;99.90;;;;;;5112287;28;19919;-79
2022/04/01 01:04:13;;;;;;;;;;;2.50;99.90;;;;;;5112337;28;19919;-79
2022/04/01 01:06:41;;;;;;;;;;;2.50;99.90;;;;;;5130469;28;20505;-79
2022/04/01 01:09:07;;;;;;;;;;;2.50;99.90;;;;;;5130346;28;19919;-79
2022/04/01 01:11:32;;;;;;;;;;;2.50;99.90;;;;;;5129387;28;19960;-79
2022/04/01 01:13:59;;;;;;;;;;;2.60;99.90;;;;;;5129556;28;19949;-79
2022/04/01 01:16:25;;;;;;;;;;;2.50;99.90;;;;;;5111745;28;19919;-79
2022/04/01 01:19:16;;;;;;;;;;;2.60;99.90;;;;;;5087818;28;19927;-79
2022/04/01 01:21:42;;;;;;;;;;;2.60;99.90;;;;;;5086106;28;19984;-79
2022/04/01 01:24:11;;;;;;;;;;;2.60;99.90;;;;;;5109020;28;20405;-78
2022/04/01 01:26:37;;;;;;;;;;;2.60;99.90;;;;;;5107713;28;19953;-79
2022/04/01 01:29:04;;;;;;;;;;;2.60;99.90;;;;;;5109801;28;19927;-79
2022/04/01 01:31:30;;;;;;;;;;;2.60;99.90;;;;;;5109663;28;19975;-79
2022/04/01 01:33:56;;;;;;;;;;;2.60;99.90;;;;;;5109390;28;20383;-78
2022/04/01 01:36:23;;;;;;;;;;;2.70;99.90;;;;;;5108175;28;19927;-79
2022/04/01 01:38:49;;;;;;;;;;;2.70;99.90;;;;;;5110149;28;19927;-79
2022/04/01 01:41:14;;;;;;;;;;;2.70;99.90;;;;;;5109701;28;19926;-79
2022/04/01 01:43:41;;;;;;;;;;;2.70;99.90;;;;;;5112098;28;19923;-79
2022/04/01 01:46:09;;;;;;;;;;;2.70;99.90;;;;;;5113376;28;19920;-79
2022/04/01 01:48:35;;;;;;;;;;;2.70;99.90;;;;;;5112256;28;19924;-78
2022/04/01 01:56:29;;;;;;;;;;;2.70;99.90;;;;;;5112962;28;19928;-78
2022/04/01 01:58:54;;;;;;;;;;;2.70;99.90;;;;;;5111953;28;20076;-78
2022/04/01 02:01:21;;;;;;;;;;;2.70;99.90;;;;;;5112040;28;19927;-78
2022/04/01 02:03:46;;;;;;;;;;;2.70;99.90;;;;;;5113377;28;20411;-78
2022/04/01 02:06:13;;;;;;;;;;;2.70;99.90;;;;;;5111472;28;19919;-78
2022/04/01 02:08:38;;;;;;;;;;;2.70;99.90;;;;;;5112828;28;19927;-78
2022/04/01 02:11:04;;;;;;;;;;;2.70;99.90;;;;;;5112918;28;19923;-78
2022/04/01 02:13:29;;;;;;;;;;;2.70;99.90;;;;;;5111743;28;19924;-78
2022/04/01 02:15:55;;;;;;;;;;;2.70;99.90;;;;;;5111656;28;20289;-78
2022/04/01 02:18:21;;;;;;;;;;;2.70;99.90;;;;;;5114344;27;19930;-78
2022/04/01 02:20:46;;;;;;;;;;;2.70;99.90;;;;;;5114608;27;19923;-78
2022/04/01 02:23:12;;;;;;;;;;;2.70;99.90;;;;;;5114838;27;19926;-78
2022/04/01 02:25:40;;;;;;;;;;;2.70;99.90;;;;;;5114906;27;19926;-79
2022/04/01 02:28:05;;;;;;;;;;;2.70;99.90;;;;;;5114847;27;19964;-78
2022/04/01 02:30:31;;;;;;;;;;;2.70;99.90;;;;;;5132923;27;19927;-79
2022/04/01 02:32:56;;;;;;;;;;;2.70;99.90;;;;;;5132529;27;20288;-78
2022/04/01 02:35:22;;;;;;;;;;;2.70;99.90;;;;;;5097976;27;19919;-78
2022/04/01 02:37:47;;;;;;;;;;;2.60;99.90;;;;;;5133290;27;19927;-78
2022/04/01 02:40:13;;;;;;;;;;;2.70;99.90;;;;;;5114449;27;19984;-78
2022/04/01 02:42:39;;;;;;;;;;;2.70;99.90;;;;;;5132586;27;19991;-78
2022/04/01 02:45:06;;;;;;;;;;;2.70;99.90;;;;;;5132932;27;20013;-79
2022/04/01 02:47:31;;;;;;;;;;;2.70;99.90;;;;;;5132415;27;20370;-79
2022/04/01 02:49:57;;;;;;;;;;;2.70;99.90;;;;;;5114525;27;19926;-78
2022/04/01 02:52:22;;;;;;;;;;;2.60;99.90;;;;;;5132345;27;20379;-78
2022/04/01 02:54:48;;;;;;;;;;;2.60;99.90;;;;;;5114566;27;20004;-79
2022/04/01 02:57:13;;;;;;;;;;;2.70;99.90;;;;;;5113693;27;20377;-79
2022/04/01 02:59:39;;;;;;;;;;;2.70;99.90;;;;;;5114119;27;20275;-79
2022/04/01 03:02:05;;;;;;;;;;;2.70;99.90;;;;;;5097264;27;19919;-79
2022/04/01 03:04:30;;;;;;;;;;;2.70;99.90;;;;;;5114146;27;19919;-79
2022/04/01 03:06:56;;;;;;;;;;;2.60;99.90;;;;;;5113905;27;20273;-79
2022/04/01 03:09:21;;;;;;;;;;;2.70;99.90;;;;;;5113608;27;19926;-79
2022/04/01 03:11:47;;;;;;;;;;;2.70;99.90;;;;;;5113759;27;20002;-79
2022/04/01 03:14:12;;;;;;;;;;;2.60;99.90;;;;;;5114012;27;20532;-78
2022/04/01 03:16:39;;;;;;;;;;;2.60;99.90;;;;;;5113635;27;19927;-78
2022/04/01 03:19:08;;;;;;;;;;;2.60;99.90;;;;;;5106058;28;19920;-78
2022/04/01 03:21:35;;;;;;;;;;;2.70;99.90;;;;;;5093210;28;20364;-78
2022/04/01 03:24:01;;;;;;;;;;;2.60;99.90;;;;;;5093157;28;19920;-79
2022/04/01 03:26:27;;;;;;;;;;;2.60;99.90;;;;;;5093597;28;20399;-78
2022/04/01 03:28:52;;;;;;;;;;;2.70;99.90;;;;;;5092932;28;19923;-79
2022/04/01 03:31:18;;;;;;;;;;;2.70;99.90;;;;;;5075901;28;19965;-79
2022/04/01 03:33:44;;;;;;;;;;;2.70;99.90;;;;;;5093129;28;20006;-78
2022/04/01 03:36:10;;;;;;;;;;;2.70;99.90;;;;;;5092880;28;19920;-78
2022/04/01 03:38:35;;;;;;;;;;;2.70;99.90;;;;;;5093116;28;19930;-79
2022/04/01 03:41:01;;;;;;;;;;;2.70;99.90;;;;;;5092356;28;19920;-79
2022/04/01 03:43:28;;;;;;;;;;;2.60;99.90;;;;;;5111036;28;19919;-79
2022/04/01 03:45:54;;;;;;;;;;;2.70;99.90;;;;;;5093055;28;20450;-79
2022/04/01 03:48:24;;;;;;;;;;;2.70;99.90;;;;;;5075893;28;19926;-79
2022/04/01 03:50:52;;;;;;;;;;;2.60;99.90;;;;;;5092334;28;19963;-79
2022/04/01 03:53:22;;;;;;;;;;;2.60;99.90;;;;;;5075686;28;19919;-79
2022/04/01 03:55:49;;;;;;;;;;;2.60;99.90;;;;;;5075989;28;19920;-79
2022/04/01 03:58:16;;;;;;;;;;;2.60;99.90;;;;;;5075424;28;19924;-78
2022/04/01 04:00:42;;;;;;;;;;;2.60;99.90;;;;;;5111041;28;19920;-79
2022/04/01 04:03:09;;;;;;;;;;;2.60;99.90;;;;;;5092449;28;19920;-79
2022/04/01 04:05:36;;;;;;;;;;;2.70;99.90;;;;;;5092080;28;19963;-79
2022/04/01 04:08:02;;;;;;;;;;;2.60;99.90;;;;;;5091986;28;19927;-79
2022/04/01 04:10:28;;;;;;;;;;;2.70;99.90;;;;;;5110169;28;19919;-78
2022/04/01 04:12:56;;;;;;;;;;;2.70;99.90;;;;;;5075687;28;19920;-79
2022/04/01 04:15:23;;;;;;;;;;;2.70;99.90;;;;;;5092009;28;20432;-79
2022/04/01 04:17:52;;;;;;;;;;;2.60;99.90;;;;;;5092253;28;19923;-79
2022/04/01 04:20:33;;;;;;;;;;;2.70;99.90;;;;;;5110723;27;19919;-79
2022/04/01 04:23:10;;;;;;;;;;;2.70;99.90;;;;;;5131157;27;19919;-79
2022/04/01 04:25:36;;;;;;;;;;;2.60;99.90;;;;;;5112751;27;19927;-79
2022/04/01 04:28:06;;;;;;;;;;;2.60;99.90;;;;;;5112401;27;19942;-79
2022/04/01 04:30:35;;;;;;;;;;;2.70;99.90;;;;;;5112536;27;20394;-79
2022/04/01 04:33:05;;;;;;;;;;;2.60;99.90;;;;;;5112382;27;19920;-79
2022/04/01 04:35:31;;;;;;;;;;;2.70;99.90;;;;;;5112335;27;19919;-79
2022/04/01 04:37:57;;;;;;;;;;;2.60;99.90;;;;;;5112049;27;19930;-79
2022/04/01 04:40:23;;;;;;;;;;;2.70;99.90;;;;;;5112554;28;20015;-79
2022/04/01 04:42:49;;;;;;;;;;;2.60;99.90;;;;;;5111789;28;19972;-79
2022/04/01 04:45:16;;;;;;;;;;;2.60;99.90;;;;;;5112044;28;19919;-79
2022/04/01 04:47:42;;;;;;;;;;;2.60;99.90;;;;;;5111807;27;19920;-79
2022/04/01 04:50:08;;;;;;;;;;;2.70;99.90;;;;;;5112275;27;19925;-78
2022/04/01 04:52:34;;;;;;;;;;;2.70;99.90;;;;;;5094744;28;19926;-79
2022/04/01 04:55:01;;;;;;;;;;;2.70;99.90;;;;;;5112665;28;20385;-79
2022/04/01 04:57:27;;;;;;;;;;;2.70;99.90;;;;;;5099989;28;19930;-79
2022/04/01 04:59:53;;;;;;;;;;;2.70;99.90;;;;;;5102081;28;19919;-77
2022/04/01 05:02:26;;;;;;;;;;;2.70;99.90;;;;;;5105878;28;19925;-80
2022/04/01 05:05:01;;;;;;;;;;;2.60;99.90;;;;;;5109130;28;20349;-79
2022/04/01 05:07:43;;;;;;;;;;;2.70;99.90;;;;;;5111806;28;19930;-79
2022/04/01 05:10:22;;;;;;;;;;;2.70;99.90;;;;;;5130185;28;20010;-79
2022/04/01 05:12:51;;;;;;;;;;;2.70;99.90;;;;;;5111763;28;20246;-79
2022/04/01 05:15:25;;;;;;;;;;;2.60;99.90;;;;;;5112932;27;20364;-79
2022/04/01 05:17:58;;;;;;;;;;;2.70;99.90;;;;;;5115958;27;20019;-79
2022/04/01 05:20:28;;;;;;;;;;;2.70;99.90;;;;;;5116188;27;20345;-79
2022/04/01 05:23:12;;;;;;;;;;;2.60;99.90;;;;;;5134132;27;20317;-79
2022/04/01 05:25:41;;;;;;;;;;;2.70;99.90;;;;;;5133903;27;19919;-79
2022/04/01 05:28:10;;;;;;;;;;;2.70;99.90;;;;;;5116187;27;20277;-79
2022/04/01 05:30:38;;;;;;;;;;;2.70;99.90;;;;;;5134148;27;20399;-79
2022/04/01 05:33:06;;;;;;;;;;;2.70;99.90;;;;;;5134243;27;19919;-79
2022/04/01 05:35:37;;;;;;;;;;;2.70;99.90;;;;;;5115634;27;19923;-78
2022/04/01 05:38:03;;;;;;;;;;;2.70;99.90;;;;;;5115501;27;20031;-78
2022/04/01 05:40:29;;;;;;;;;;;2.70;99.90;;;;;;5115796;27;20005;-78
2022/04/01 05:42:55;;;;;;;;;;;2.70;99.90;;;;;;5133751;27;19944;-78
2022/04/01 05:45:23;;;;;;;;;;;2.70;99.90;;;;;;5133651;27;19924;-78
2022/04/01 05:47:48;;;;;;;;;;;2.70;99.90;;;;;;5134265;27;20019;-78
2022/04/01 05:50:18;;;;;;;;;;;2.70;99.90;;;;;;5115179;27;19998;-79
2022/04/01 05:52:45;;;;;;;;;;;2.70;99.90;;;;;;5115384;27;19919;-78
2022/04/01 05:55:11;;;;;;;;;;;2.80;99.90;;;;;;5115275;27;20429;-78
2022/04/01 05:57:38;;;;;;;;;;;2.80;99.90;;;;;;5115631;27;19930;-79
2022/04/01 06:00:05;;;;;;;;;;;2.80;99.90;;;;;;5114757;27;19965;-78
2022/04/01 06:02:47;;;;;;;;;;;2.80;99.90;;;;;;5098275;27;19919;-78
2022/04/01 06:05:31;;;;;;;;;;;2.80;99.90;;;;;;5115385;27;19920;-78
2022/04/01 06:08:09;;;;;;;;;;;2.80;99.90;;;;;;5115278;27;20392;-78
2022/04/01 06:10:44;;;;;;;;;;;2.80;99.90;;;;;;5115323;27;19919;-79
2022/04/01 06:13:19;;;;;;;;;;;2.80;99.90;;;;;;5115433;27;20365;-79
2022/04/01 06:15:55;;;;;;;;;;;2.80;99.90;;;;;;5098181;27;19930;-79
2022/04/01 06:18:20;;;;;;;;;;;2.90;99.90;;;;;;5114771;27;19944;-79
2022/04/01 06:20:47;;;;;;;;;;;2.90;99.90;;;;;;5114871;27;20836;-79
2022/04/01 06:23:16;;;;;;;;;;;2.90;99.90;;;;;;5097882;27;19927;-78
2022/04/01 06:25:45;;;;;;;;;;;2.90;99.90;;;;;;5098000;27;19930;-79
2022/04/01 06:28:30;;;;;;;;;;;2.90;99.90;;;;;;5113799;27;20051;-79
2022/04/01 06:31:03;;;;;;;;;;;3.00;99.90;;;;;;5114999;27;20306;-79
2022/04/01 06:33:38;;;;;;;;;;;3.00;99.90;;;;;;5115175;27;19920;-79
2022/04/01 06:36:05;;;;;;;;;;;3.00;99.90;;;;;;5114789;27;20373;-79
2022/04/01 06:38:30;;;;;;;;;;;3.00;99.90;;;;;;5114828;27;19963;-78
2022/04/01 06:40:58;;;;;;;;;;;3.10;99.90;;;;;;5096820;27;20385;-79
2022/04/01 06:43:24;;;;;;;;;;;3.10;99.90;;;;;;5114372;27;19923;-79
2022/04/01 06:45:50;;;;;;;;;;;3.10;99.90;;;;;;5114325;27;19927;-80
2022/04/01 06:48:15;;;;;;;;;;;3.10;99.90;;;;;;5114119;27;19930;-78
2022/04/01 06:50:49;;;;;;;;;;;3.10;99.90;;;;;;5113821;27;20296;-79
2022/04/01 06:53:18;;;;;;;;;;;3.10;99.90;;;;;;5132729;27;19919;-79
2022/04/01 06:55:44;;;;;;;;;;;3.20;99.90;;;;;;5114321;27;19919;-78
2022/04/01 06:58:11;;;;;;;;;;;3.10;99.90;;;;;;5114022;27;19923;-79
2022/04/01 07:00:37;;;;;;;;;;;3.20;99.90;;;;;;5113838;27;19930;-78
2022/04/01 07:03:02;;;;;;;;;;;3.20;99.90;;;;;;5132505;27;19923;-78
2022/04/01 07:05:28;;;;;;;;;;;3.20;99.90;;;;;;5096530;27;19947;-78
2022/04/01 07:07:54;;;;;;;;;;;3.20;99.90;;;;;;5132557;27;19930;-78
2022/04/01 07:10:20;;;;;;;;;;;3.20;99.90;;;;;;5132466;27;19979;-78
2022/04/01 07:12:45;;;;;;;;;;;3.20;99.90;;;;;;5132103;27;19919;-80
2022/04/01 07:15:11;;;;;;;;;;;3.30;99.90;;;;;;5132145;27;19926;-79
2022/04/01 07:17:37;;;;;;;;;;;3.30;99.90;;;;;;5132437;27;19920;-79
2022/04/01 07:20:03;;;;;;;;;;;3.30;99.90;;;;;;5112988;27;19920;-79
2022/04/01 07:22:29;;;;;;;;;;;3.20;99.90;;;;;;5113435;27;19919;-79
2022/04/01 07:24:54;;;;;;;;;;;3.20;99.90;;;;;;5096888;27;19919;-79
2022/04/01 07:27:21;;;;;;;;;;;3.20;99.90;;;;;;5131753;27;20278;-79
2022/04/01 07:29:47;;;;;;;;;;;3.20;99.90;;;;;;5113999;27;20002;-79
2022/04/01 07:32:32;;;;;;;;;;;3.20;99.90;;;;;;5131292;27;20017;-80
2022/04/01 07:34:58;;;;;;;;;;;3.20;99.90;;;;;;5131715;27;19919;-79
2022/04/01 07:37:25;;;;;;;;;;;3.10;99.90;;;;;;5131591;27;20335;-79
2022/04/01 07:39:51;;;;;;;;;;;3.10;99.90;;;;;;5113334;27;19919;-79
2022/04/01 07:42:18;;;;;;;;;;;3.00;99.90;;;;;;5131204;27;19923;-77
2022/04/01 07:44:44;;;;;;;;;;;2.90;99.90;;;;;;5113222;27;19926;-78
2022/04/01 07:47:09;;;;;;;;;;;2.90;99.90;;;;;;5131647;27;20285;-77
2022/04/01 07:49:39;;;;;;;;;;;2.80;99.90;;;;;;5131454;27;19923;-78
2022/04/01 07:52:07;;;;;;;;;;;2.80;99.90;;;;;;5113031;27;19930;-77
2022/04/01 07:54:34;;;;;;;;;;;2.80;99.90;;;;;;5131096;27;19919;-80
2022/04/01 07:56:59;;;;;;;;;;;2.80;99.90;;;;;;5131521;27;19941;-77
2022/04/01 07:59:25;;;;;;;;;;;2.80;99.90;;;;;;5131196;27;19919;-78
2022/04/01 08:01:51;;;;;;;;;;;2.80;99.90;;;;;;5113232;27;19927;-79
2022/04/01 08:04:16;;;;;;;;;;;2.80;99.90;;;;;;5112693;27;19923;-79
2022/04/01 08:06:42;;;;;;;;;;;2.80;99.90;;;;;;5131144;27;19926;-79
2022/04/01 08:09:08;;;;;;;;;;;2.80;99.90;;;;;;5131163;27;19919;-79
2022/04/01 08:11:33;;;;;;;;;;;2.90;99.90;;;;;;5112482;27;19920;-80
2022/04/01 08:13:59;;;;;;;;;;;2.90;99.90;;;;;;5131015;27;19926;-79
2022/04/01 08:16:25;;;;;;;;;;;3.00;99.90;;;;;;5130613;27;19923;-79
2022/04/01 08:18:51;;;;;;;;;;;3.00;99.90;;;;;;5130823;27;20586;-79
2022/04/01 08:21:17;;;;;;;;;;;3.00;99.90;;;;;;5112664;27;19930;-79
2022/04/01 08:23:43;;;;;;;;;;;3.10;99.90;;;;;;5131219;27;19919;-79
2022/04/01 08:26:09;;;;;;;;;;;3.10;99.90;;;;;;5130286;27;19965;-77
2022/04/01 08:28:35;;;;;;;;;;;3.10;99.90;;;;;;5112583;27;19923;-80
2022/04/01 08:31:01;;;;;;;;;;;3.20;99.90;;;;;;5112634;27;19926;-77
2022/04/01 08:33:27;;;;;;;;;;;3.30;99.90;;;;;;5130638;27;19923;-79
2022/04/01 08:35:52;;;;;;;;;;;3.40;99.90;;;;;;5112297;27;19923;-78
2022/04/01 08:38:18;;;;;;;;;;;3.40;99.90;;;;;;5130372;27;19993;-78
2022/04/01 08:40:44;;;;;;;;;;;3.50;99.90;;;;;;5112587;27;20247;-78
2022/04/01 08:43:09;;;;;;;;;;;3.50;99.90;;;;;;5130711;27;19998;-79
2022/04/01 08:45:37;;;;;;;;;;;3.60;99.90;;;;;;5112115;28;19927;-79
2022/04/01 08:48:06;;;;;;;;;;;3.50;99.90;;;;;;5130653;27;20010;-79
2022/04/01 08:50:32;;;;;;;;;;;3.50;99.90;;;;;;5111027;28;20413;-77
2022/04/01 08:52:58;;;;;;;;;;;3.60;99.90;;;;;;5130478;27;19927;-79
2022/04/01 08:55:24;;;;;;;;;;;3.60;99.40;;;;;;5130522;27;20018;-79
2022/04/01 08:57:50;;;;;;;;;;;3.60;99.40;;;;;;5130485;28;19926;-78
2022/04/01 09:00:16;;;;;;;;;;;3.70;99.40;;;;;;5130286;28;20396;-78
2022/04/01 09:02:42;;;;;;;;;;;3.80;99.90;;;;;;5130186;28;19919;-78
2022/04/01 09:05:08;;;;;;;;;;;3.80;99.90;;;;;;5130495;28;19919;-78
2022/04/01 09:07:34;;;;;;;;;;;3.90;99.90;;;;;;5111893;28;19929;-78
2022/04/01 09:10:01;;;;;;;;;;;3.80;99.90;;;;;;5130636;28;19919;-78
2022/04/01 09:12:26;;;;;;;;;;;3.90;99.90;;;;;;5111617;28;19920;-78
2022/04/01 09:14:53;;;;;;;;;;;3.90;99.90;;;;;;5111893;28;19927;-78
2022/04/01 09:17:18;;;;;;;;;;;3.90;99.90;;;;;;5111926;28;19919;-79
2022/04/01 09:19:44;;;;;;;;;;;4.00;99.90;;;;;;5116548;28;19924;-78
2022/04/01 09:22:20;;;;;;;;;;;4.10;99.90;;;;;;5091291;28;20382;-78
2022/04/01 09:24:56;;;;;;;;;;;4.10;99.90;;;;;;5109603;28;19919;-78
2022/04/01 09:27:40;;;;;;;;;;;4.10;99.90;;;;;;5109404;28;19919;-78
2022/04/01 09:30:06;;;;;;;;;;;4.20;99.90;;;;;;5109678;28;20404;-78
2022/04/01 09:32:39;;;;;;;;;;;4.40;99.90;;;;;;5108480;28;19927;-78
2022/04/01 09:35:05;;;;;;;;;;;4.40;99.90;;;;;;5090873;28;19924;-78
2022/04/01 09:37:38;;;;;;;;;;;4.50;99.90;;;;;;5109644;28;19920;-79
2022/04/01 09:40:03;;;;;;;;;;;4.50;99.90;;;;;;5109945;28;19995;-78
2022/04/01 09:42:29;;;;;;;;;;;4.50;99.90;;;;;;5109478;28;19919;-78
2022/04/01 09:44:57;;;;;;;;;;;4.60;99.90;;;;;;5109024;28;19927;-78
2022/04/01 09:47:23;;;;;;;;;;;4.60;99.90;;;;;;5091371;28;19928;-78
2022/04/01 09:49:52;;;;;;;;;;;4.60;99.90;;;;;;5091804;28;20407;-78
2022/04/01 09:52:22;;;;;;;;;;;4.60;99.90;;;;;;5091112;28;19930;-78
2022/04/01 09:54:47;;;;;;;;;;;4.60;99.90;;;;;;5108979;28;19927;-78
2022/04/01 09:57:14;;;;;;;;;;;4.60;99.90;;;;;;5109255;28;19927;-78
2022/04/01 09:59:41;;;;;;;;;;;4.60;99.90;;;;;;5109526;28;19984;-78
2022/04/01 10:02:06;;;;;;;;;;;4.70;99.90;;;;;;5074779;28;19920;-78
2022/04/01 10:04:32;;;;;;;;;;;4.60;99.90;;;;;;5112986;28;19919;-78
2022/04/01 10:06:58;;;;;;;;;;;4.60;99.90;;;;;;5077918;28;20401;-78
2022/04/01 10:09:25;;;;;;;;;;;4.50;99.90;;;;;;5094744;28;19923;-78
2022/04/01 10:11:51;;;;;;;;;;;4.40;99.90;;;;;;5112907;28;19927;-78
2022/04/01 10:14:19;;;;;;;;;;;4.40;99.90;;;;;;5112856;28;19919;-78
2022/04/01 10:16:45;;;;;;;;;;;4.50;99.90;;;;;;5094579;28;19928;-78
2022/04/01 10:19:25;;;;;;;;;;;4.60;99.90;;;;;;5103603;27;20392;-78
2022/04/01 10:21:51;;;;;;;;;;;4.60;99.90;;;;;;5133418;27;19930;-79
2022/04/01 10:24:22;;;;;;;;;;;4.70;99.90;;;;;;5114714;27;19926;-78
2022/04/01 10:27:11;;;;;;;;;;;4.70;99.90;;;;;;5097942;27;20018;-78
2022/04/01 10:29:36;;;;;;;;;;;4.60;98.40;;;;;;5100963;27;19923;-78
2022/04/01 10:32:21;;;;;;;;;;;4.70;99.10;;;;;;5114261;27;20293;-78
2022/04/01 10:34:47;;;;;;;;;;;4.80;96.00;;;;;;5132846;27;19934;-79
2022/04/01 10:37:14;;;;;;;;;;;4.90;96.60;;;;;;5097657;27;19926;-78
2022/04/01 10:39:50;;;;;;;;;;;5.00;95.90;;;;;;5114725;27;19923;-78
2022/04/01 10:42:16;;;;;;;;;;;5.20;95.00;;;;;;5133013;27;19923;-79
2022/04/01 10:44:45;;;;;;;;;;;5.20;95.80;;;;;;5114601;27;20321;-78
2022/04/01 10:47:10;;;;;;;;;;;5.30;95.40;;;;;;5114154;27;19973;-78
2022/04/01 10:52:23;;;;;;;;;;;5.40;93.70;;;;;;5113941;27;20342;-78
2022/04/01 10:54:50;;;;;;;;;;;5.40;93.80;;;;;;5097709;27;19923;-78
2022/04/01 10:57:29;;;;;;;;;;;5.50;94.90;;;;;;5113877;27;19919;-78
2022/04/01 10:59:58;;;;;;;;;;;5.50;93.50;;;;;;5114484;27;19919;-78
2022/04/01 11:02:23;;;;;;;;;;;5.50;93.10;;;;;;5113982;27;20546;-78
2022/04/01 11:04:52;;;;;;;;;;;5.50;90.60;;;;;;5114009;27;19919;-77
2022/04/01 11:07:21;;;;;;;;;;;5.50;91.20;;;;;;5114173;27;19919;-77
2022/04/01 11:09:56;;;;;;;;;;;5.60;90.90;;;;;;5114086;27;19919;-77
2022/04/01 11:12:23;;;;;;;;;;;5.60;88.90;;;;;;5113578;27;19919;-77
2022/04/01 11:15:08;;;;;;;;;;;5.60;91.90;;;;;;5113239;27;19972;-77
2022/04/01 11:17:34;;;;;;;;;;;5.60;91.50;;;;;;5113571;27;20597;-77
2022/04/01 11:20:13;;;;;;;;;;;5.60;91.50;;;;;;5113390;27;19976;-78
2022/04/01 11:22:40;;;;;;;;;;;5.70;91.20;;;;;;5113516;27;19964;-77
2022/04/01 11:25:07;;;;;;;;;;;5.70;91.70;;;;;;5113569;27;20390;-77
2022/04/01 11:27:34;;;;;;;;;;;5.80;92.40;;;;;;5113619;27;19926;-77
2022/04/01 11:30:13;;;;;;;;;;;5.90;92.60;;;;;;5113320;27;20439;-78
2022/04/01 11:32:40;;;;;;;;;;;5.90;90.90;;;;;;5113538;27;19919;-78
2022/04/01 11:35:06;;;;;;;;;;;5.90;92.40;;;;;;5113360;27;20018;-77
2022/04/01 11:37:39;;;;;;;;;;;5.90;92.40;;;;;;5131798;27;19920;-77
2022/04/01 11:40:05;;;;;;;;;;;6.00;91.80;;;;;;5113628;27;19988;-77
2022/04/01 11:42:31;;;;;;;;;;;6.00;91.50;;;;;;5112987;27;19920;-78
2022/04/01 11:44:58;;;;;;;;;;;6.00;92.00;;;;;;5131741;27;19919;-78
2022/04/01 11:47:32;;;;;;;;;;;6.10;92.90;;;;;;5112919;27;19928;-77
2022/04/01 11:50:07;;;;;;;;;;;6.10;93.40;;;;;;5131685;27;19923;-78
2022/04/01 11:52:40;;;;;;;;;;;6.10;93.30;;;;;;5112429;27;19946;-77
2022/04/01 11:55:15;;;;;;;;;;;6.10;94.00;;;;;;5131562;27;19962;-77
2022/04/01 11:57:41;;;;;;;;;;;6.10;94.80;;;;;;5131628;27;19927;-77
2022/04/01 12:00:10;;;;;;;;;;;6.10;95.10;;;;;;5113237;27;19980;-77
2022/04/01 12:02:36;;;;;;;;;;;6.10;95.40;;;;;;5131119;27;19931;-77
2022/04/01 12:05:02;;;;;;;;;;;6.20;95.20;;;;;;5130788;27;20494;-78
2022/04/01 12:10:19;;;;;;;;;;;6.20;95.40;;;;;;5112912;27;19919;-78
2022/04/01 12:12:55;;;;;;;;;;;6.20;94.50;;;;;;5112747;27;20407;-78
2022/04/01 12:15:30;;;;;;;;;;;6.10;95.20;;;;;;5112491;27;19923;-78
2022/04/01 12:17:55;;;;;;;;;;;6.10;95.30;;;;;;5112743;27;19926;-78
2022/04/01 12:20:21;;;;;;;;;;;6.10;95.90;;;;;;5093704;28;19919;-78
2022/04/01 12:22:46;;;;;;;;;;;6.00;96.00;;;;;;5092199;28;19927;-78
2022/04/01 12:25:12;;;;;;;;;;;5.90;96.40;;;;;;5091299;28;19920;-78
2022/04/01 12:27:53;;;;;;;;;;;5.90;96.20;;;;;;5092122;28;19974;-78
2022/04/01 12:30:26;;;;;;;;;;;5.90;96.90;;;;;;5091984;28;19920;-78
2022/04/01 12:32:56;;;;;;;;;;;6.00;96.60;;;;;;5092283;28;20279;-79
2022/04/01 12:35:22;;;;;;;;;;;6.10;96.40;;;;;;5092242;28;19920;-79
2022/04/01 12:38:01;;;;;;;;;;;6.10;96.20;;;;;;5092157;28;19920;-79
2022/04/01 12:40:27;;;;;;;;;;;6.10;96.20;;;;;;5091907;28;19942;-78
2022/04/01 12:42:52;;;;;;;;;;;6.10;95.80;;;;;;5109939;28;20378;-78
2022/04/01 12:45:19;;;;;;;;;;;6.10;94.70;;;;;;5091664;28;19919;-79
2022/04/01 12:47:44;;;;;;;;;;;6.10;94.50;;;;;;5092437;28;19926;-79
2022/04/01 12:50:29;;;;;;;;;;;6.10;94.90;;;;;;5091879;28;19924;-78
2022/04/01 12:53:07;;;;;;;;;;;6.10;94.30;;;;;;5091792;28;19994;-78
2022/04/01 12:55:32;;;;;;;;;;;6.10;95.00;;;;;;5074655;28;19966;-78
2022/04/01 12:57:57;;;;;;;;;;;6.00;94.30;;;;;;5110048;28;20380;-79
2022/04/01 13:00:24;;;;;;;;;;;6.00;94.10;;;;;;5074870;28;19928;-79
2022/04/01 13:02:50;;;;;;;;;;;5.90;93.30;;;;;;5092098;28;20370;-79
2022/04/01 13:05:16;;;;;;;;;;;5.90;93.20;;;;;;5091419;28;19926;-79
2022/04/01 13:07:42;;;;;;;;;;;5.80;92.40;;;;;;5091705;28;19919;-79
2022/04/01 13:10:07;;;;;;;;;;;5.90;93.50;;;;;;5092143;28;19926;-79
2022/04/01 13:12:34;;;;;;;;;;;6.00;94.10;;;;;;5109704;28;20381;-78
2022/04/01 13:15:00;;;;;;;;;;;6.00;93.70;;;;;;5091222;28;19920;-78
2022/04/01 13:17:26;;;;;;;;;;;6.00;93.70;;;;;;5091560;28;19927;-79
2022/04/01 13:19:51;;;;;;;;;;;6.00;93.60;;;;;;5105966;28;19930;-78
2022/04/01 13:22:17;;;;;;;;;;;5.90;92.20;;;;;;5111890;28;20029;-79
2022/04/01 13:24:43;;;;;;;;;;;5.90;92.60;;;;;;5111675;28;19919;-79
2022/04/01 13:27:11;;;;;;;;;;;5.90;92.10;;;;;;5112039;28;20322;-79
2022/04/01 13:29:40;;;;;;;;;;;5.90;91.70;;;;;;5130292;28;19923;-78
2022/04/01 13:32:06;;;;;;;;;;;5.90;91.30;;;;;;5111652;28;20417;-78
2022/04/01 13:34:32;;;;;;;;;;;5.80;91.90;;;;;;5094573;28;19923;-78
2022/04/01 13:36:58;;;;;;;;;;;5.80;91.80;;;;;;5114120;27;19924;-79
2022/04/01 13:39:24;;;;;;;;;;;5.70;91.30;;;;;;5134037;27;20300;-79
2022/04/01 13:41:50;;;;;;;;;;;5.70;92.50;;;;;;5115582;27;19963;-79
2022/04/01 13:44:16;;;;;;;;;;;5.80;92.10;;;;;;5134086;27;20014;-79
2022/04/01 13:46:42;;;;;;;;;;;5.80;91.70;;;;;;5133540;27;20018;-78
2022/04/01 13:49:07;;;;;;;;;;;5.80;91.20;;;;;;5133470;27;19926;-79
2022/04/01 13:51:33;;;;;;;;;;;5.80;90.80;;;;;;5133617;27;19919;-79
2022/04/01 13:53:59;;;;;;;;;;;5.70;91.00;;;;;;5098363;27;19927;-79
2022/04/01 13:56:25;;;;;;;;;;;5.80;89.40;;;;;;5133018;27;19923;-79
2022/04/01 13:58:50;;;;;;;;;;;5.70;90.60;;;;;;5133433;27;20026;-79
2022/04/01 14:01:16;;;;;;;;;;;5.80;90.90;;;;;;5115334;27;19945;-79
2022/04/01 14:03:42;;;;;;;;;;;5.80;89.20;;;;;;5097946;27;19969;-79
2022/04/01 14:06:07;;;;;;;;;;;5.80;90.60;;;;;;5114666;27;19919;-80
2022/04/01 14:08:33;;;;;;;;;;;5.80;90.30;;;;;;5098109;27;20542;-77
2022/04/01 14:10:58;;;;;;;;;;;5.80;91.10;;;;;;5133511;27;19919;-77
2022/04/01 14:13:24;;;;;;;;;;;5.90;90.00;;;;;;5115150;27;20381;-77
2022/04/01 14:15:50;;;;;;;;;;;5.80;88.70;;;;;;5133474;27;19926;-77
2022/04/01 14:18:15;;;;;;;;;;;5.80;89.00;;;;;;5097793;27;19919;-77
2022/04/01 14:20:40;;;;;;;;;;;5.80;89.80;;;;;;5133586;27;19931;-78
2022/04/01 14:23:07;;;;;;;;;;;5.90;88.40;;;;;;5098177;27;19945;-78
2022/04/01 14:25:32;;;;;;;;;;;5.80;88.30;;;;;;5133185;27;19923;-78
2022/04/01 14:27:58;;;;;;;;;;;5.80;89.20;;;;;;5133217;27;20382;-79
2022/04/01 14:30:24;;;;;;;;;;;5.80;89.40;;;;;;5132917;27;19934;-78
2022/04/01 14:32:52;;;;;;;;;;;5.80;89.80;;;;;;5133142;27;19946;-78
2022/04/01 14:35:18;;;;;;;;;;;5.70;89.00;;;;;;5114442;27;20368;-78
2022/04/01 14:37:44;;;;;;;;;;;5.70;88.10;;;;;;5132823;27;20014;-78
2022/04/01 14:40:09;;;;;;;;;;;5.80;88.90;;;;;;5133009;27;20060;-78
2022/04/01 14:42:35;;;;;;;;;;;5.80;88.60;;;;;;5132521;27;19920;-78
2022/04/01 14:45:03;;;;;;;;;;;5.80;86.30;;;;;;5133005;27;20007;-78